Time;durP1;ratioP1;P1;durP2;ratioP2;P2;SDS_P1;SDS_P2;PMS_P1;PMS_P2;Temp;Humidity;BMP_temperature;BMP_pressure;BME280_temperature;BME280_humidity;BME280_pressure;Samples;Min_cycle;Max_cycle;Signal;HPM_P1;HPM_P2
2021/10/18 00:00:00;;;;;;;33.17;20.43;;;6.90;99.90;;;;;;4983332;28;20180;-82
2021/10/18 00:02:26;;;;;;;38.10;21.27;;;6.90;99.90;;;;;;5000068;28;20175;-82
2021/10/18 00:04:52;;;;;;;51.53;27.37;;;6.90;99.90;;;;;;4983013;28;20199;-82
2021/10/18 00:07:17;;;;;;;45.43;25.50;;;6.90;99.90;;;;;;4982412;28;20701;-82
2021/10/18 00:09:43;;;;;;;40.47;22.83;;;6.90;99.90;;;;;;4999582;28;20234;-82
2021/10/18 00:12:09;;;;;;;42.13;22.27;;;6.90;99.90;;;;;;4999996;28;20685;-82
2021/10/18 00:14:35;;;;;;;39.20;21.40;;;6.90;99.90;;;;;;5000621;28;20264;-82
2021/10/18 00:17:00;;;;;;;44.90;23.33;;;6.90;99.90;;;;;;4983818;28;20308;-83
2021/10/18 00:19:26;;;;;;;44.97;22.60;;;6.80;99.90;;;;;;5000584;28;20184;-83
2021/10/18 00:21:52;;;;;;;33.60;20.67;;;6.90;99.90;;;;;;4998703;28;20176;-81
2021/10/18 00:24:18;;;;;;;35.87;20.53;;;6.90;99.90;;;;;;4999516;28;20232;-82
2021/10/18 00:26:44;;;;;;;31.30;19.57;;;6.90;99.90;;;;;;4998948;28;20561;-80
2021/10/18 00:29:10;;;;;;;28.30;18.97;;;6.90;99.90;;;;;;4981483;28;20263;-82
2021/10/18 00:31:36;;;;;;;29.60;18.50;;;7.00;99.90;;;;;;4981840;28;20184;-82
2021/10/18 00:34:01;;;;;;;33.67;18.97;;;7.00;99.90;;;;;;4978766;28;20786;-82
2021/10/18 00:36:27;;;;;;;31.97;18.97;;;7.00;99.90;;;;;;4974007;28;20297;-83
2021/10/18 00:38:52;;;;;;;35.00;19.33;;;7.00;99.90;;;;;;4980329;28;20546;-83
2021/10/18 00:41:19;;;;;;;33.73;18.97;;;7.00;99.90;;;;;;4987397;28;20183;-83
2021/10/18 00:43:46;;;;;;;40.13;19.57;;;7.00;99.90;;;;;;4978559;28;20184;-83
2021/10/18 00:46:14;;;;;;;39.50;20.50;;;6.90;99.90;;;;;;4962063;28;20594;-82
2021/10/18 00:48:40;;;;;;;37.27;19.33;;;6.90;99.90;;;;;;4978785;28;20200;-84
2021/10/18 00:51:06;;;;;;;47.40;21.43;;;6.90;99.90;;;;;;4980355;28;20219;-84
2021/10/18 00:53:33;;;;;;;52.27;22.87;;;6.80;99.90;;;;;;4965383;28;20184;-83
2021/10/18 00:55:59;;;;;;;52.00;22.13;;;6.70;99.90;;;;;;4984232;28;20737;-83
2021/10/18 00:58:26;;;;;;;60.50;23.30;;;6.80;99.90;;;;;;4961960;28;20205;-82
2021/10/18 01:00:53;;;;;;;56.00;23.27;;;6.60;99.90;;;;;;4961078;28;20578;-82
2021/10/18 01:03:20;;;;;;;64.40;23.50;;;6.60;99.90;;;;;;4978013;28;20173;-82
2021/10/18 01:05:45;;;;;;;49.37;21.67;;;6.50;99.90;;;;;;4959763;28;20189;-83
2021/10/18 01:08:11;;;;;;;51.97;21.70;;;6.50;99.90;;;;;;4978727;28;20308;-82
2021/10/18 01:10:37;;;;;;;57.30;22.63;;;6.50;99.90;;;;;;4979215;28;20169;-80
2021/10/18 01:13:04;;;;;;;78.20;25.10;;;6.60;99.90;;;;;;4978077;28;20177;-83
2021/10/18 01:15:30;;;;;;;67.93;23.60;;;6.60;99.90;;;;;;4985306;28;20192;-82
2021/10/18 01:17:56;;;;;;;56.90;23.73;;;6.60;99.90;;;;;;4979151;28;20203;-82
2021/10/18 01:20:34;;;;;;;65.30;23.93;;;6.60;99.90;;;;;;4980976;28;20259;-84
2021/10/18 01:23:00;;;;;;;57.70;23.03;;;6.70;99.90;;;;;;4970494;28;20186;-83
2021/10/18 01:25:27;;;;;;;55.27;23.53;;;6.70;99.90;;;;;;4979214;28;20200;-82
2021/10/18 01:27:54;;;;;;;58.17;23.77;;;6.70;99.90;;;;;;4960018;28;20228;-84
2021/10/18 01:30:20;;;;;;;60.03;23.67;;;6.70;99.90;;;;;;4960367;28;20181;-80
2021/10/18 01:32:47;;;;;;;48.40;21.83;;;6.70;99.90;;;;;;4977728;28;20189;-82
2021/10/18 01:35:13;;;;;;;55.20;23.90;;;6.80;99.90;;;;;;4981529;28;20185;-82
2021/10/18 01:37:39;;;;;;;58.40;22.27;;;6.80;99.90;;;;;;4988342;28;20718;-82
2021/10/18 01:40:11;;;;;;;50.30;22.23;;;6.80;99.90;;;;;;4982780;28;20187;-83
2021/10/18 01:42:36;;;;;;;47.37;21.53;;;6.80;99.90;;;;;;4983143;28;20186;-82
2021/10/18 01:45:04;;;;;;;47.43;22.43;;;6.80;99.90;;;;;;5000589;28;20241;-83
2021/10/18 01:47:30;;;;;;;64.20;22.87;;;6.80;99.90;;;;;;5001788;28;20283;-83
2021/10/18 01:49:56;;;;;;;47.40;22.47;;;6.70;99.90;;;;;;4998102;28;20614;-83
2021/10/18 01:52:23;;;;;;;46.63;21.10;;;6.80;99.90;;;;;;4981345;28;20184;-83
2021/10/18 01:54:48;;;;;;;51.20;21.90;;;6.70;99.90;;;;;;4990384;28;20278;-82
2021/10/18 01:57:14;;;;;;;45.20;21.40;;;6.80;99.90;;;;;;4998666;28;20721;-83
2021/10/18 01:59:40;;;;;;;43.13;22.33;;;6.70;99.90;;;;;;4981619;28;20262;-83
2021/10/18 02:02:05;;;;;;;47.00;22.83;;;6.60;99.90;;;;;;4982601;28;20262;-82
2021/10/18 02:04:31;;;;;;;51.43;24.40;;;6.60;99.90;;;;;;5001003;28;20176;-82
2021/10/18 02:06:57;;;;;;;61.07;26.27;;;6.60;99.90;;;;;;5000747;28;20199;-82
2021/10/18 02:09:23;;;;;;;64.37;25.40;;;6.70;99.90;;;;;;5000806;28;20179;-82
2021/10/18 02:11:49;;;;;;;57.93;25.93;;;6.60;99.90;;;;;;4999877;28;20179;-82
2021/10/18 02:14:15;;;;;;;61.10;25.67;;;6.60;99.90;;;;;;5001080;28;20619;-82
2021/10/18 02:16:40;;;;;;;63.77;26.47;;;6.70;99.90;;;;;;5000840;28;20208;-82
2021/10/18 02:19:06;;;;;;;60.97;25.57;;;6.70;99.90;;;;;;5000951;28;20635;-82
2021/10/18 02:21:32;;;;;;;60.03;24.67;;;6.60;99.90;;;;;;5000951;28;20651;-82
2021/10/18 02:23:58;;;;;;;62.30;26.17;;;6.70;99.90;;;;;;5000533;28;20249;-82
2021/10/18 02:26:23;;;;;;;65.30;25.63;;;6.60;99.90;;;;;;5000439;28;20180;-83
2021/10/18 02:28:49;;;;;;;58.17;25.90;;;6.70;99.90;;;;;;5000115;28;20196;-82
2021/10/18 02:31:14;;;;;;;60.53;25.53;;;6.70;99.90;;;;;;5000956;28;20214;-82
2021/10/18 02:33:40;;;;;;;55.10;26.77;;;6.70;99.90;;;;;;5000280;28;20218;-82
2021/10/18 02:36:06;;;;;;;61.07;27.13;;;6.70;99.90;;;;;;4999911;28;20203;-83
2021/10/18 02:38:31;;;;;;;55.47;26.27;;;6.80;99.90;;;;;;5000140;28;20190;-82
2021/10/18 02:40:57;;;;;;;61.60;26.70;;;6.80;99.90;;;;;;4999849;28;20176;-82
2021/10/18 02:43:23;;;;;;;63.00;27.23;;;6.70;99.90;;;;;;5000152;28;20231;-82
2021/10/18 02:45:50;;;;;;;62.43;27.60;;;6.80;99.90;;;;;;4982318;28;20180;-83
2021/10/18 02:48:15;;;;;;;56.63;26.60;;;6.80;99.90;;;;;;4997159;28;20200;-82
2021/10/18 02:50:41;;;;;;;62.63;27.53;;;6.80;99.90;;;;;;4999191;28;20183;-82
2021/10/18 02:53:07;;;;;;;61.93;26.73;;;6.80;99.90;;;;;;4999981;28;20188;-83
2021/10/18 02:55:33;;;;;;;66.77;27.57;;;6.90;99.90;;;;;;4991463;28;20703;-82
2021/10/18 02:57:59;;;;;;;65.77;27.30;;;6.90;99.90;;;;;;4981765;28;20238;-82
2021/10/18 03:00:24;;;;;;;64.83;27.97;;;7.00;99.90;;;;;;4990810;28;20239;-83
2021/10/18 03:02:50;;;;;;;64.27;28.70;;;7.10;99.90;;;;;;4980689;28;20173;-82
2021/10/18 03:05:16;;;;;;;71.93;27.67;;;7.00;99.90;;;;;;4986159;28;20199;-82
2021/10/18 03:07:41;;;;;;;77.47;30.10;;;7.10;99.90;;;;;;4999229;28;20196;-83
2021/10/18 03:10:08;;;;;;;71.37;29.43;;;7.10;99.90;;;;;;4984117;28;20637;-82
2021/10/18 03:12:34;;;;;;;72.03;29.23;;;7.10;99.90;;;;;;4998461;28;20170;-82
2021/10/18 03:15:00;;;;;;;66.03;28.27;;;7.00;99.90;;;;;;4999444;28;20172;-82
2021/10/18 03:17:27;;;;;;;66.70;27.67;;;7.20;99.90;;;;;;4980875;28;20206;-80
2021/10/18 03:19:52;;;;;;;71.20;30.03;;;7.10;99.90;;;;;;4998734;28;20259;-82
2021/10/18 03:22:18;;;;;;;77.17;30.00;;;7.20;99.90;;;;;;4998691;28;20226;-82
2021/10/18 03:24:44;;;;;;;72.63;30.17;;;7.20;99.90;;;;;;4998239;28;20164;-82
2021/10/18 03:27:09;;;;;;;75.73;30.40;;;7.20;99.90;;;;;;4998738;28;20269;-83
2021/10/18 03:29:35;;;;;;;75.63;30.53;;;7.20;99.90;;;;;;4998502;28;20177;-82
2021/10/18 03:32:01;;;;;;;79.70;31.17;;;7.20;99.90;;;;;;4980524;28;20561;-82
2021/10/18 03:34:26;;;;;;;85.63;31.87;;;7.20;99.90;;;;;;4998846;28;20195;-82
2021/10/18 03:36:52;;;;;;;93.03;31.23;;;7.30;99.90;;;;;;4998493;28;20204;-82
2021/10/18 03:39:18;;;;;;;81.87;31.43;;;7.30;99.90;;;;;;4980877;28;20234;-82
2021/10/18 03:41:43;;;;;;;90.83;31.63;;;7.20;99.90;;;;;;4998456;28;20168;-83
2021/10/18 03:44:09;;;;;;;92.80;32.80;;;7.30;99.90;;;;;;4980588;28;20173;-82
2021/10/18 03:46:35;;;;;;;93.27;33.37;;;7.30;99.90;;;;;;4998359;28;20183;-83
2021/10/18 03:49:00;;;;;;;84.30;31.77;;;7.30;99.90;;;;;;4998336;28;20197;-82
2021/10/18 03:51:26;;;;;;;87.37;32.10;;;7.30;99.90;;;;;;4998117;28;20172;-82
2021/10/18 03:53:52;;;;;;;104.37;32.70;;;7.30;99.90;;;;;;4992227;28;20176;-82
2021/10/18 03:56:17;;;;;;;95.73;36.17;;;7.30;99.90;;;;;;4994621;28;20192;-82
2021/10/18 03:58:43;;;;;;;84.60;32.80;;;7.30;99.90;;;;;;4998978;28;20206;-82
2021/10/18 04:01:09;;;;;;;86.63;33.60;;;7.30;99.90;;;;;;4996636;28;20191;-82
2021/10/18 04:03:36;;;;;;;78.63;31.50;;;7.30;99.90;;;;;;4997918;28;20171;-82
2021/10/18 04:06:02;;;;;;;80.80;31.37;;;7.30;99.90;;;;;;4988946;28;20184;-83
2021/10/18 04:08:30;;;;;;;94.00;31.70;;;7.40;99.90;;;;;;4996023;28;20196;-83
2021/10/18 04:10:57;;;;;;;119.30;30.93;;;7.30;99.90;;;;;;4997006;28;20594;-82
2021/10/18 04:13:23;;;;;;;113.93;30.20;;;7.30;99.90;;;;;;4979648;28;20187;-82
2021/10/18 04:15:49;;;;;;;82.30;30.80;;;7.20;99.90;;;;;;4991849;28;20200;-82
2021/10/18 04:18:14;;;;;;;95.00;31.70;;;7.30;99.90;;;;;;4990775;28;20203;-82
2021/10/18 04:20:40;;;;;;;106.93;31.40;;;7.20;99.90;;;;;;4994515;28;20214;-81
2021/10/18 04:23:06;;;;;;;95.07;30.17;;;7.20;99.90;;;;;;4989855;28;20230;-83
2021/10/18 04:25:31;;;;;;;95.60;32.00;;;7.20;99.90;;;;;;5006487;28;20226;-82
2021/10/18 04:27:57;;;;;;;95.90;32.57;;;7.20;99.90;;;;;;4981619;28;20204;-81
2021/10/18 04:30:23;;;;;;;92.30;31.67;;;7.20;99.90;;;;;;4983386;28;20191;-83
2021/10/18 04:32:48;;;;;;;88.13;31.33;;;7.20;99.90;;;;;;5000409;28;20214;-83
2021/10/18 04:35:17;;;;;;;102.00;34.50;;;7.20;99.90;;;;;;4999445;28;20194;-82
2021/10/18 04:37:42;;;;;;;94.27;32.60;;;7.20;99.90;;;;;;4996577;28;20196;-83
2021/10/18 04:40:08;;;;;;;98.70;31.37;;;7.30;99.90;;;;;;5002959;28;20183;-82
2021/10/18 04:42:34;;;;;;;106.60;30.27;;;7.30;99.90;;;;;;4978509;28;20666;-83
2021/10/18 04:45:00;;;;;;;92.00;29.60;;;7.10;99.90;;;;;;4998293;28;20263;-83
2021/10/18 04:47:25;;;;;;;89.97;29.67;;;7.20;99.90;;;;;;4997602;28;20195;-83
2021/10/18 04:49:51;;;;;;;82.20;31.17;;;7.20;99.90;;;;;;4971837;28;20187;-84
2021/10/18 04:52:17;;;;;;;84.87;30.80;;;7.10;99.90;;;;;;4991228;28;20195;-84
2021/10/18 04:54:42;;;;;;;79.80;30.77;;;7.10;99.90;;;;;;4969593;28;20180;-82
2021/10/18 04:57:08;;;;;;;94.27;29.80;;;7.10;99.90;;;;;;4963005;28;20212;-83
2021/10/18 04:59:35;;;;;;;89.10;29.77;;;7.10;99.90;;;;;;4982213;28;20196;-83
2021/10/18 05:02:01;;;;;;;86.77;30.90;;;7.10;99.90;;;;;;4980648;28;20203;-82
2021/10/18 05:04:26;;;;;;;103.27;29.90;;;7.10;99.90;;;;;;4962575;28;20183;-82
2021/10/18 05:06:52;;;;;;;82.43;29.77;;;7.10;99.90;;;;;;4985311;28;20188;-82
2021/10/18 05:09:18;;;;;;;84.87;30.67;;;7.10;99.90;;;;;;4982355;28;20191;-82
2021/10/18 05:11:43;;;;;;;72.23;30.17;;;7.20;99.90;;;;;;4983680;28;20188;-82
2021/10/18 05:14:09;;;;;;;78.57;31.60;;;7.20;99.90;;;;;;5000254;28;20616;-82
2021/10/18 05:16:34;;;;;;;73.50;28.87;;;7.20;99.90;;;;;;5002590;28;20203;-81
2021/10/18 05:19:00;;;;;;;77.80;29.53;;;7.20;99.90;;;;;;5001213;28;20200;-81
2021/10/18 05:21:26;;;;;;;68.27;28.50;;;7.20;99.90;;;;;;5000433;28;20187;-80
2021/10/18 05:23:52;;;;;;;75.47;30.57;;;7.20;99.90;;;;;;4974954;28;20180;-83
2021/10/18 05:26:18;;;;;;;70.60;28.63;;;7.40;99.90;;;;;;5001776;28;20559;-82
2021/10/18 05:28:43;;;;;;;68.80;28.97;;;7.30;99.90;;;;;;4989355;28;20736;-83
2021/10/18 05:31:10;;;;;;;71.80;28.70;;;7.30;99.90;;;;;;4992002;28;20184;-83
2021/10/18 05:33:35;;;;;;;73.30;30.77;;;7.30;99.90;;;;;;4991536;28;20203;-83
2021/10/18 05:36:01;;;;;;;72.67;29.73;;;7.30;99.90;;;;;;5003847;28;20256;-82
2021/10/18 05:38:27;;;;;;;68.70;29.20;;;7.40;99.90;;;;;;4986383;28;20207;-83
2021/10/18 05:40:54;;;;;;;70.43;29.47;;;7.30;99.90;;;;;;4997366;28;20184;-83
2021/10/18 05:43:20;;;;;;;70.90;28.53;;;7.30;99.90;;;;;;5002525;28;20171;-82
2021/10/18 05:45:46;;;;;;;79.47;30.13;;;7.30;99.90;;;;;;5001633;28;20187;-83
2021/10/18 05:48:12;;;;;;;76.03;29.20;;;7.30;99.90;;;;;;4999936;28;20231;-83
2021/10/18 05:50:44;;;;;;;76.03;29.77;;;7.40;99.90;;;;;;4981946;28;20180;-83
2021/10/18 05:53:12;;;;;;;74.93;29.13;;;7.40;99.90;;;;;;4991574;28;20632;-83
2021/10/18 05:55:37;;;;;;;75.67;27.33;;;7.40;99.90;;;;;;4990666;28;20204;-83
2021/10/18 05:58:05;;;;;;;69.97;27.60;;;7.40;99.90;;;;;;5001795;28;20219;-82
2021/10/18 06:00:37;;;;;;;73.93;28.70;;;7.30;99.90;;;;;;4980721;28;20185;-84
2021/10/18 06:03:03;;;;;;;79.10;30.60;;;7.40;99.90;;;;;;4988981;28;20238;-82
2021/10/18 06:05:29;;;;;;;68.10;27.17;;;7.40;99.90;;;;;;5001625;28;20180;-83
2021/10/18 06:08:04;;;;;;;69.43;25.67;;;7.60;99.90;;;;;;4984337;28;20615;-85
2021/10/18 06:10:30;;;;;;;63.90;26.60;;;7.40;99.90;;;;;;4965729;28;20181;-83
2021/10/18 06:12:55;;;;;;;69.33;27.17;;;7.30;99.90;;;;;;4997071;28;20235;-82
2021/10/18 06:15:21;;;;;;;63.30;26.53;;;7.40;99.90;;;;;;4973919;28;20181;-82
2021/10/18 06:17:47;;;;;;;64.03;26.00;;;7.40;99.90;;;;;;4997601;28;20228;-83
2021/10/18 06:20:13;;;;;;;64.40;26.77;;;7.40;99.90;;;;;;4999526;28;20235;-83
2021/10/18 06:22:39;;;;;;;64.53;26.40;;;7.40;99.90;;;;;;4971675;28;20177;-83
2021/10/18 06:25:06;;;;;;;66.97;24.90;;;7.40;99.90;;;;;;4971910;28;20187;-83
2021/10/18 06:27:31;;;;;;;64.87;27.20;;;7.40;99.90;;;;;;4992675;28;20298;-83
2021/10/18 06:29:57;;;;;;;62.97;26.23;;;7.30;99.90;;;;;;5002754;28;20184;-84
2021/10/18 06:32:23;;;;;;;55.27;24.87;;;7.30;99.90;;;;;;4979251;28;20179;-83
2021/10/18 06:34:48;;;;;;;66.13;26.87;;;7.30;99.90;;;;;;5002428;28;20180;-84
2021/10/18 06:37:14;;;;;;;63.83;27.13;;;7.40;99.90;;;;;;5001588;28;20235;-84
2021/10/18 06:39:40;;;;;;;70.40;28.10;;;7.40;99.90;;;;;;5000713;28;20647;-85
2021/10/18 06:42:06;;;;;;;74.60;26.40;;;7.40;99.90;;;;;;4988566;28;20230;-84
2021/10/18 06:44:31;;;;;;;67.07;26.70;;;7.40;99.90;;;;;;4999135;28;20246;-85
2021/10/18 06:46:57;;;;;;;65.10;26.50;;;7.40;99.90;;;;;;4970636;28;20292;-84
2021/10/18 06:49:24;;;;;;;61.53;24.83;;;7.50;99.90;;;;;;4978161;28;20183;-83
2021/10/18 06:51:55;;;;;;;73.77;27.10;;;7.50;99.90;;;;;;5001707;28;20183;-83
2021/10/18 06:54:22;;;;;;;61.43;25.93;;;7.50;99.90;;;;;;4983456;28;20176;-84
2021/10/18 06:56:48;;;;;;;73.50;28.27;;;7.50;99.90;;;;;;4991285;28;20262;-83
2021/10/18 06:59:15;;;;;;;70.87;27.17;;;7.50;99.90;;;;;;5000696;28;20259;-84
2021/10/18 07:01:41;;;;;;;73.63;27.50;;;7.50;99.90;;;;;;5000587;28;20176;-83
2021/10/18 07:04:08;;;;;;;72.03;27.17;;;7.50;99.90;;;;;;4970773;28;20182;-83
2021/10/18 07:06:35;;;;;;;74.43;29.67;;;7.50;99.90;;;;;;4993547;28;20172;-84
2021/10/18 07:09:01;;;;;;;67.37;28.60;;;7.60;99.90;;;;;;4982642;28;20236;-84
2021/10/18 07:11:26;;;;;;;61.53;27.17;;;7.70;99.90;;;;;;5000518;28;20536;-82
2021/10/18 07:13:53;;;;;;;48.97;25.33;;;7.70;99.90;;;;;;5000563;28;20204;-84
2021/10/18 07:16:19;;;;;;;46.80;24.23;;;7.70;99.90;;;;;;4999159;28;20662;-85
2021/10/18 07:18:45;;;;;;;47.70;24.90;;;7.90;99.90;;;;;;4986762;28;20258;-83
2021/10/18 07:21:11;;;;;;;44.83;25.10;;;7.70;99.90;;;;;;4978333;28;20173;-83
2021/10/18 07:23:37;;;;;;;48.20;24.83;;;7.70;99.90;;;;;;4963508;28;20169;-84
2021/10/18 07:26:04;;;;;;;45.77;24.70;;;7.70;99.90;;;;;;4981309;28;20180;-83
2021/10/18 07:28:31;;;;;;;47.00;24.50;;;7.70;99.90;;;;;;4965806;28;20200;-83
2021/10/18 07:30:58;;;;;;;38.47;22.63;;;7.80;99.90;;;;;;4991540;28;20176;-84
2021/10/18 07:33:24;;;;;;;38.30;22.47;;;7.90;99.90;;;;;;4982248;28;20172;-83
2021/10/18 07:35:50;;;;;;;43.13;23.07;;;7.90;99.90;;;;;;4980013;28;20714;-83
2021/10/18 07:38:16;;;;;;;42.30;23.63;;;7.90;99.90;;;;;;4980552;28;20188;-82
2021/10/18 07:40:42;;;;;;;37.73;21.70;;;7.80;99.90;;;;;;4991079;28;20177;-83
2021/10/18 07:43:10;;;;;;;34.70;21.63;;;7.90;99.90;;;;;;4981555;28;20183;-83
2021/10/18 07:45:36;;;;;;;32.77;19.70;;;7.90;99.90;;;;;;4979237;28;20173;-84
2021/10/18 07:48:02;;;;;;;33.23;20.53;;;8.00;99.90;;;;;;4977853;28;20201;-83
2021/10/18 07:50:28;;;;;;;33.20;20.73;;;8.00;99.90;;;;;;4982812;28;20177;-84
2021/10/18 07:52:54;;;;;;;32.10;21.63;;;8.00;99.90;;;;;;4963301;28;20207;-84
2021/10/18 07:55:20;;;;;;;31.93;20.80;;;8.00;99.90;;;;;;4963401;28;20177;-81
2021/10/18 07:57:49;;;;;;;37.60;23.10;;;8.00;99.90;;;;;;4963476;28;20204;-83
2021/10/18 08:00:16;;;;;;;35.73;23.60;;;8.10;99.90;;;;;;4978351;28;20239;-83
2021/10/18 08:02:42;;;;;;;39.77;24.03;;;8.10;99.90;;;;;;4979047;28;20212;-83
2021/10/18 08:05:08;;;;;;;38.57;22.83;;;8.10;99.90;;;;;;4978104;28;20542;-81
2021/10/18 08:07:40;;;;;;;35.53;21.37;;;8.00;99.90;;;;;;4965101;28;20205;-85
2021/10/18 08:10:07;;;;;;;35.50;21.60;;;8.00;99.90;;;;;;4979917;28;20187;-83
2021/10/18 08:12:35;;;;;;;35.27;22.07;;;8.10;99.90;;;;;;4963280;28;20176;-84
2021/10/18 08:15:03;;;;;;;35.83;20.13;;;8.10;99.90;;;;;;4988926;28;20173;-83
2021/10/18 08:17:28;;;;;;;37.47;22.13;;;8.10;99.90;;;;;;4978661;28;20203;-84
2021/10/18 08:19:54;;;;;;;35.03;21.07;;;8.10;99.90;;;;;;4961479;28;20298;-84
2021/10/18 08:22:20;;;;;;;36.37;20.93;;;8.10;99.90;;;;;;4960896;28;20308;-82
2021/10/18 08:24:45;;;;;;;32.27;20.23;;;8.10;99.90;;;;;;4984477;28;20168;-83
2021/10/18 08:27:11;;;;;;;29.67;19.70;;;8.10;99.90;;;;;;4998564;28;20309;-83
2021/10/18 08:29:37;;;;;;;35.30;20.77;;;8.10;99.90;;;;;;4975529;28;20716;-82
2021/10/18 08:32:03;;;;;;;36.23;22.07;;;8.10;99.90;;;;;;4967838;28;20177;-83
2021/10/18 08:34:28;;;;;;;34.97;21.37;;;8.20;99.90;;;;;;4978798;28;20690;-83
2021/10/18 08:36:54;;;;;;;36.40;21.37;;;8.10;99.90;;;;;;4972524;28;20238;-83
2021/10/18 08:42:11;;;;;;;52.63;24.30;;;8.10;99.90;;;;;;4991049;28;20600;-83
2021/10/18 08:44:36;;;;;;;42.97;23.53;;;8.20;99.90;;;;;;4991878;28;20175;-84
2021/10/18 08:47:02;;;;;;;32.40;20.53;;;8.20;99.90;;;;;;4967174;28;20259;-83
2021/10/18 08:49:29;;;;;;;32.77;20.50;;;8.20;99.90;;;;;;4991139;28;20184;-83
2021/10/18 08:51:55;;;;;;;31.50;20.43;;;8.30;99.90;;;;;;4991758;28;20181;-83
2021/10/18 08:54:21;;;;;;;32.47;20.60;;;8.30;99.90;;;;;;4987653;28;20172;-84
2021/10/18 08:56:47;;;;;;;29.53;19.53;;;8.40;99.90;;;;;;4995318;28;20195;-83
2021/10/18 08:59:13;;;;;;;29.07;20.33;;;8.40;99.90;;;;;;5004576;28;20175;-84
2021/10/18 09:01:47;;;;;;;34.13;20.10;;;8.40;99.90;;;;;;4994754;28;20256;-82
2021/10/18 09:04:16;;;;;;;42.37;23.37;;;8.40;99.90;;;;;;4985891;28;20364;-82
2021/10/18 09:06:49;;;;;;;33.07;21.60;;;8.50;99.90;;;;;;4974248;28;20194;-85
2021/10/18 09:09:15;;;;;;;26.23;18.70;;;8.50;99.90;;;;;;4995800;28;20180;-84
2021/10/18 09:11:42;;;;;;;31.23;20.47;;;8.50;99.90;;;;;;4976923;28;20271;-83
2021/10/18 09:14:08;;;;;;;40.53;22.50;;;8.60;99.90;;;;;;4986230;28;20177;-83
2021/10/18 09:16:37;;;;;;;38.80;22.33;;;8.60;99.90;;;;;;4986395;28;20199;-83
2021/10/18 09:19:17;;;;;;;37.30;22.10;;;8.60;99.90;;;;;;4967174;28;20606;-83
2021/10/18 09:21:48;;;;;;;38.20;22.40;;;8.60;99.90;;;;;;4966880;28;20288;-81
2021/10/18 09:24:30;;;;;;;33.90;21.80;;;8.70;99.90;;;;;;4983496;28;20173;-82
2021/10/18 09:26:59;;;;;;;40.63;23.37;;;8.60;99.90;;;;;;4991970;28;20615;-83
2021/10/18 09:29:44;;;;;;;27.73;19.50;;;8.70;99.90;;;;;;4969709;28;20224;-84
2021/10/18 09:32:10;;;;;;;32.33;20.90;;;8.70;99.90;;;;;;4979174;28;20184;-83
2021/10/18 09:34:38;;;;;;;40.83;23.20;;;8.70;99.90;;;;;;4987669;28;20173;-84
2021/10/18 09:37:12;;;;;;;30.33;19.80;;;8.70;99.90;;;;;;4985502;28;20200;-84
2021/10/18 09:39:41;;;;;;;31.30;19.47;;;8.80;99.90;;;;;;4968868;28;20183;-82
2021/10/18 09:42:15;;;;;;;29.43;20.17;;;8.90;99.90;;;;;;4996959;28;20171;-85
2021/10/18 10:52:40;;;;;;;21.33;17.73;;;10.50;99.90;;;;;;4998561;28;20204;-83
2021/10/18 10:55:35;;;;;;;20.43;16.93;;;10.60;99.90;;;;;;4992733;28;20194;-83
2021/10/18 10:58:22;;;;;;;21.50;16.13;;;10.70;99.90;;;;;;4970000;28;20220;-84
2021/10/18 11:00:48;;;;;;;20.77;16.63;;;10.70;99.90;;;;;;4991992;28;20676;-83
2021/10/18 11:03:36;;;;;;;19.07;16.70;;;10.70;99.90;;;;;;4988602;28;20187;-85
2021/10/18 11:06:04;;;;;;;19.00;15.13;;;10.90;99.90;;;;;;4991453;28;20173;-84
2021/10/18 11:08:43;;;;;;;17.60;15.10;;;11.00;99.90;;;;;;4972985;28;20206;-84
2021/10/18 11:11:10;;;;;;;18.03;15.33;;;11.10;99.90;;;;;;4977019;28;20184;-83
2021/10/18 11:13:43;;;;;;;20.27;16.30;;;11.30;99.90;;;;;;4994570;28;20594;-83
2021/10/18 11:16:09;;;;;;;18.17;15.67;;;11.40;99.90;;;;;;4989856;28;20200;-83
2021/10/18 11:18:35;;;;;;;18.07;15.87;;;11.30;99.90;;;;;;4981428;28;20204;-83
2021/10/18 11:21:34;;;;;;;16.53;14.53;;;11.40;99.90;;;;;;4978739;28;20262;-84
2021/10/18 11:24:10;;;;;;;19.33;16.40;;;11.60;99.90;;;;;;4984257;28;20194;-84
2021/10/18 11:26:41;;;;;;;17.73;15.27;;;11.70;99.90;;;;;;4994704;28;20176;-84
2021/10/18 11:29:12;;;;;;;18.57;15.57;;;11.90;99.90;;;;;;4999658;28;20194;-84
2021/10/18 11:31:40;;;;;;;20.93;17.53;;;11.90;99.90;;;;;;4991458;28;20262;-83
2021/10/18 11:34:19;;;;;;;25.33;17.43;;;11.90;99.90;;;;;;5030611;23;20262;-80
2021/10/18 11:36:48;;;;;;;17.30;15.47;;;11.90;99.90;;;;;;5022892;28;20210;-80
2021/10/18 11:39:17;;;;;;;19.00;16.07;;;11.90;99.90;;;;;;5028541;28;20258;-80
2021/10/18 11:42:06;;;;;;;16.27;14.57;;;11.90;99.90;;;;;;5027647;28;20170;-81
2021/10/18 11:44:54;;;;;;;17.00;15.20;;;12.10;99.90;;;;;;5034074;28;20192;-82
2021/10/18 11:47:36;;;;;;;17.00;14.80;;;12.00;99.90;;;;;;5019902;28;20250;-81
2021/10/18 11:50:25;;;;;;;19.37;15.77;;;12.00;99.90;;;;;;5014791;28;20189;-82
2021/10/18 11:52:56;;;;;;;16.97;15.17;;;12.10;99.90;;;;;;5018002;28;20210;-82
2021/10/18 11:55:38;;;;;;;16.83;15.07;;;12.10;99.90;;;;;;5009716;28;20257;-82
2021/10/18 11:58:05;;;;;;;18.20;14.53;;;12.30;99.90;;;;;;5013500;28;20171;-82
2021/10/18 12:00:44;;;;;;;17.20;14.93;;;12.30;99.90;;;;;;5022255;28;20165;-81
2021/10/18 12:03:12;;;;;;;18.07;14.77;;;12.50;99.90;;;;;;5021815;28;20218;-82
2021/10/18 12:05:53;;;;;;;20.53;15.30;;;12.60;99.90;;;;;;5020177;28;20221;-82
2021/10/18 12:08:21;;;;;;;16.67;14.83;;;12.60;99.90;;;;;;5017173;28;20179;-81
2021/10/18 12:10:50;;;;;;;18.70;16.70;;;12.60;99.90;;;;;;5018329;28;20178;-81
2021/10/18 12:13:21;;;;;;;18.30;16.27;;;12.60;99.90;;;;;;5006650;28;20612;-81
2021/10/18 12:15:58;;;;;;;16.90;15.17;;;12.60;99.90;;;;;;5019714;28;20197;-81
2021/10/18 12:18:35;;;;;;;17.57;14.63;;;12.60;99.90;;;;;;5018142;28;20712;-81
2021/10/18 12:21:07;;;;;;;16.53;14.87;;;12.60;99.90;;;;;;5009584;28;20188;-82
2021/10/18 12:24:00;;;;;;;16.20;14.50;;;12.60;99.90;;;;;;5016978;28;20200;-81
2021/10/18 12:26:31;;;;;;;15.90;14.30;;;12.70;99.90;;;;;;5016331;28;20182;-82
2021/10/18 12:29:06;;;;;;;17.97;16.03;;;12.60;99.90;;;;;;5012315;28;20227;-81
2021/10/18 12:31:46;;;;;;;18.40;14.93;;;12.70;99.90;;;;;;5012367;28;20177;-82
2021/10/18 12:34:22;;;;;;;20.23;15.13;;;12.80;99.90;;;;;;5017654;28;20285;-81
2021/10/18 12:37:02;;;;;;;18.00;16.10;;;13.00;99.90;;;;;;5004315;28;20190;-82
2021/10/18 12:39:53;;;;;;;18.73;15.50;;;13.00;99.90;;;;;;5012914;28;20167;-82
2021/10/18 12:42:26;;;;;;;19.37;16.20;;;13.10;99.90;;;;;;5014170;28;20168;-81
2021/10/18 12:45:16;;;;;;;17.27;15.47;;;13.10;99.90;;;;;;5019944;28;20675;-82
2021/10/18 12:47:49;;;;;;;14.77;13.33;;;13.20;99.90;;;;;;5031910;28;20226;-83
2021/10/18 12:50:19;;;;;;;15.40;13.80;;;13.30;99.90;;;;;;5030223;28;20170;-83
2021/10/18 12:53:01;;;;;;;14.80;13.27;;;13.40;99.90;;;;;;5022411;28;20218;-82
2021/10/18 12:55:36;;;;;;;15.60;13.97;;;13.60;99.90;;;;;;5019431;28;20185;-84
2021/10/18 12:58:07;;;;;;;14.53;13.03;;;13.60;99.90;;;;;;5018067;28;20181;-82
2021/10/18 13:00:35;;;;;;;14.77;13.27;;;13.60;99.90;;;;;;5018914;28;20181;-82
2021/10/18 13:03:07;;;;;;;13.87;12.27;;;13.70;99.90;;;;;;5020991;28;20214;-83
2021/10/18 13:05:45;;;;;;;12.63;11.53;;;13.80;99.90;;;;;;5028813;28;20221;-82
2021/10/18 13:08:16;;;;;;;179.60;91.43;;;13.80;99.90;;;;;;5020842;28;20183;-80
2021/10/18 13:10:43;;;;;;;15.23;13.67;;;13.80;99.90;;;;;;5019528;28;20190;-82
2021/10/18 13:13:15;;;;;;;13.37;12.07;;;13.80;99.90;;;;;;5020091;28;20262;-82
2021/10/18 13:15:43;;;;;;;13.90;12.60;;;13.70;99.90;;;;;;5014451;28;20260;-82
2021/10/18 13:18:11;;;;;;;13.33;11.97;;;13.60;99.90;;;;;;5013742;28;20182;-82
2021/10/18 13:20:37;;;;;;;14.07;12.57;;;13.60;99.90;;;;;;5019263;28;20249;-82
2021/10/18 13:23:07;;;;;;;12.03;10.83;;;13.70;99.90;;;;;;5014456;28;20188;-83
2021/10/18 13:25:38;;;;;;;13.60;12.20;;;13.70;99.90;;;;;;5029471;28;20222;-82
2021/10/18 13:28:05;;;;;;;11.67;10.67;;;13.80;99.90;;;;;;5025405;28;20167;-83
2021/10/18 13:30:32;;;;;;;11.43;10.47;;;13.80;99.90;;;;;;5023721;28;20182;-83
2021/10/18 13:32:59;;;;;;;13.27;11.97;;;13.90;99.90;;;;;;5032308;28;20263;-82
2021/10/18 13:35:26;;;;;;;12.57;11.30;;;13.90;99.90;;;;;;5024663;28;20175;-82
2021/10/18 13:37:52;;;;;;;10.97;9.77;;;13.80;99.90;;;;;;5014352;28;20235;-82
2021/10/18 13:40:20;;;;;;;10.97;9.87;;;13.90;99.90;;;;;;5015282;28;20701;-81
2021/10/18 13:42:47;;;;;;;13.57;11.73;;;14.10;99.90;;;;;;5019066;28;20293;-82
2021/10/18 13:45:15;;;;;;;11.73;10.67;;;14.10;99.90;;;;;;5026688;28;20660;-79
2021/10/18 13:47:42;;;;;;;11.43;10.33;;;14.00;99.90;;;;;;5020901;28;20553;-80